Aeroporto :
LOGIN :

Iscrizione | Disclaimer

   EN    FR    IT 

 










Sommario :    VFR   VFR Marginale   IFR   IFR Intensivo   IFR Molto Intensivo
Visibilità : 
Base nubi : 
>= 8 km
>= 3000ft
5 / 8 km
1000 / 3000 ft
1500m / 5 km
500 / 1000 ft
800 / 1500m
200 / 500 ft
< 800m
< 200 ft
Simboli :   Temporali  Nebbia  Neve Forte  Precipitazioni Forti  Vento > 20 kt
SIGMETs :   Varie  Temporali  Ghiacco  Turbolenza  Onda orograficha  Ceneri Vulcaniche






- Altitudine del aeroporto : 13 ft
- Codice IATA : LYX


EGMD - Lydd

ULTIMO METAR :
  • 231750Z 33010KT 9999 FEW030 10/06 Q1022

METARs OBSOLETI :
  • 231720Z 34012KT 9999 FEW028 10/07 Q1021
  • 231650Z 35013KT 9999 FEW023 BKN043 11/08 Q1020
  • 231620Z 29013KT 9999 BKN036 BKN044 12/09 Q1019
  • 231550Z 30018KT 9999 FEW030 BKN035 12/10 Q1019
  • 231520Z 30015KT 9999 SCT012 BKN031 12/11 Q1018 RESHRA

TAF TAF EGMD
Valido dal 23 a 18 ore il 24 a 03 ore UTC


231702Z 2318/2403 30010KT 9999 SCT040
BECMG 2320/2323 VRB03KT
BECMG 2400/2403 16010KT BKN010
ATIS : +44 1797 322 422



MetMap, La meteo Aeronautica in un colpo d'occhio ! - Copyright ORBIFLY Dicembre 2007 - Disclaimer

ORBIFLY MET'MAP TEAM :

Programmazione e sviluppo : Alexandra Zaïnal
Concezione : Baudouin d'Aumeries
Aiuto per la programmazione : Marc-Olivier Méhu
Supporto tecnico e logistico : Manuel Goepfert
Aiuto per la traduzione : Arnaldo La Scala

Contatto : metmap@orbifly.com




FONTI E CREDITI :

   NOAA